sensor_id;sensor_type;location;lat;lon;timestamp;P1;durP1;ratioP1;P2;durP2;ratioP2
51515;SDS011;37603;55.614;37.326;2022-12-29T00:03:32;4.0;;;1.5;;
51515;SDS011;37603;55.614;37.326;2022-12-29T00:09:31;4.1;;;1.5;;
51515;SDS011;37603;55.614;37.326;2022-12-29T00:15:29;6.4;;;1.6;;
51515;SDS011;37603;55.614;37.326;2022-12-29T00:21:28;5.3;;;1.8;;
51515;SDS011;37603;55.614;37.326;2022-12-29T00:27:26;5.7;;;1.8;;
51515;SDS011;37603;55.614;37.326;2022-12-29T00:33:26;6.7;;;1.8;;
51515;SDS011;37603;55.614;37.326;2022-12-29T00:39:23;5.7;;;1.8;;
51515;SDS011;37603;55.614;37.326;2022-12-29T00:45:22;7.1;;;1.6;;
51515;SDS011;37603;55.614;37.326;2022-12-29T00:51:20;4.9;;;1.8;;
51515;SDS011;37603;55.614;37.326;2022-12-29T00:57:19;8.1;;;2.0;;
51515;SDS011;37603;55.614;37.326;2022-12-29T01:03:18;6.7;;;1.8;;
51515;SDS011;37603;55.614;37.326;2022-12-29T01:09:16;7.0;;;2.2;;
51515;SDS011;37603;55.614;37.326;2022-12-29T01:15:15;6.8;;;2.1;;
51515;SDS011;37603;55.614;37.326;2022-12-29T01:21:13;6.7;;;2.3;;
51515;SDS011;37603;55.614;37.326;2022-12-29T01:27:12;7.9;;;2.4;;
51515;SDS011;37603;55.614;37.326;2022-12-29T01:33:10;5.6;;;2.4;;
51515;SDS011;37603;55.614;37.326;2022-12-29T01:39:09;7.3;;;2.4;;
51515;SDS011;37603;55.614;37.326;2022-12-29T01:45:08;6.8;;;2.4;;
51515;SDS011;37603;55.614;37.326;2022-12-29T01:51:06;7.5;;;2.3;;
51515;SDS011;37603;55.614;37.326;2022-12-29T01:57:06;5.6;;;2.4;;
51515;SDS011;37603;55.614;37.326;2022-12-29T02:03:03;8.7;;;2.2;;
51515;SDS011;37603;55.614;37.326;2022-12-29T02:15:00;10.0;;;2.8;;
51515;SDS011;37603;55.614;37.326;2022-12-29T02:21:06;7.6;;;2.8;;
51515;SDS011;37603;55.614;37.326;2022-12-29T02:27:03;9.6;;;2.5;;
51515;SDS011;37603;55.614;37.326;2022-12-29T02:32:57;7.1;;;2.7;;
51515;SDS011;37603;55.614;37.326;2022-12-29T02:38:58;6.4;;;2.6;;
51515;SDS011;37603;55.614;37.326;2022-12-29T02:44:54;5.0;;;1.6;;
51515;SDS011;37603;55.614;37.326;2022-12-29T02:50:53;8.8;;;2.9;;
51515;SDS011;37603;55.614;37.326;2022-12-29T02:56:50;7.2;;;2.8;;
51515;SDS011;37603;55.614;37.326;2022-12-29T03:02:54;8.6;;;1.3;;
51515;SDS011;37603;55.614;37.326;2022-12-29T03:08:48;4.2;;;1.0;;
51515;SDS011;37603;55.614;37.326;2022-12-29T03:14:49;8.9;;;3.0;;
51515;SDS011;37603;55.614;37.326;2022-12-29T03:20:46;5.6;;;1.9;;
51515;SDS011;37603;55.614;37.326;2022-12-29T03:26:43;7.1;;;1.6;;
51515;SDS011;37603;55.614;37.326;2022-12-29T03:32:42;10.3;;;2.0;;
51515;SDS011;37603;55.614;37.326;2022-12-29T03:38:41;4.9;;;1.5;;
51515;SDS011;37603;55.614;37.326;2022-12-29T03:44:39;9.4;;;3.9;;
51515;SDS011;37603;55.614;37.326;2022-12-29T03:50:37;8.2;;;3.8;;
51515;SDS011;37603;55.614;37.326;2022-12-29T03:56:35;10.5;;;4.4;;
51515;SDS011;37603;55.614;37.326;2022-12-29T04:02:34;9.6;;;4.4;;
51515;SDS011;37603;55.614;37.326;2022-12-29T04:08:32;9.9;;;3.2;;
51515;SDS011;37603;55.614;37.326;2022-12-29T04:20:29;9.1;;;2.8;;
51515;SDS011;37603;55.614;37.326;2022-12-29T04:26:28;5.3;;;1.3;;
51515;SDS011;37603;55.614;37.326;2022-12-29T04:32:26;3.7;;;1.3;;
51515;SDS011;37603;55.614;37.326;2022-12-29T04:38:25;7.4;;;2.8;;
51515;SDS011;37603;55.614;37.326;2022-12-29T04:44:23;9.0;;;2.8;;
51515;SDS011;37603;55.614;37.326;2022-12-29T04:50:22;4.0;;;1.1;;
51515;SDS011;37603;55.614;37.326;2022-12-29T04:56:20;8.2;;;1.6;;
51515;SDS011;37603;55.614;37.326;2022-12-29T05:02:19;11.3;;;2.5;;
51515;SDS011;37603;55.614;37.326;2022-12-29T05:08:17;12.3;;;4.1;;
51515;SDS011;37603;55.614;37.326;2022-12-29T05:14:16;8.8;;;3.5;;
51515;SDS011;37603;55.614;37.326;2022-12-29T05:20:14;6.1;;;1.4;;
51515;SDS011;37603;55.614;37.326;2022-12-29T05:26:13;5.1;;;1.3;;
51515;SDS011;37603;55.614;37.326;2022-12-29T05:44:09;4.2;;;1.3;;
51515;SDS011;37603;55.614;37.326;2022-12-29T05:50:07;4.5;;;1.4;;
51515;SDS011;37603;55.614;37.326;2022-12-29T05:56:06;8.0;;;3.0;;
51515;SDS011;37603;55.614;37.326;2022-12-29T06:02:04;2.8;;;1.2;;
51515;SDS011;37603;55.614;37.326;2022-12-29T06:08:03;7.3;;;3.0;;
51515;SDS011;37603;55.614;37.326;2022-12-29T06:14:01;8.3;;;4.1;;
51515;SDS011;37603;55.614;37.326;2022-12-29T06:20:00;13.6;;;3.5;;
51515;SDS011;37603;55.614;37.326;2022-12-29T06:25:58;11.2;;;4.2;;
51515;SDS011;37603;55.614;37.326;2022-12-29T06:31:57;15.0;;;9.2;;
51515;SDS011;37603;55.614;37.326;2022-12-29T06:37:55;12.7;;;7.0;;
51515;SDS011;37603;55.614;37.326;2022-12-29T06:43:54;10.6;;;6.1;;
51515;SDS011;37603;55.614;37.326;2022-12-29T06:49:52;6.0;;;3.0;;
51515;SDS011;37603;55.614;37.326;2022-12-29T06:55:51;12.5;;;7.7;;
51515;SDS011;37603;55.614;37.326;2022-12-29T07:07:48;12.1;;;9.5;;
51515;SDS011;37603;55.614;37.326;2022-12-29T07:13:46;15.4;;;9.3;;
51515;SDS011;37603;55.614;37.326;2022-12-29T07:19:45;8.5;;;4.4;;
51515;SDS011;37603;55.614;37.326;2022-12-29T07:25:43;13.5;;;10.1;;
51515;SDS011;37603;55.614;37.326;2022-12-29T07:31:42;7.6;;;4.0;;
51515;SDS011;37603;55.614;37.326;2022-12-29T07:37:41;13.2;;;8.3;;
51515;SDS011;37603;55.614;37.326;2022-12-29T07:43:39;10.5;;;7.2;;
51515;SDS011;37603;55.614;37.326;2022-12-29T07:49:38;10.8;;;6.0;;
51515;SDS011;37603;55.614;37.326;2022-12-29T07:55:36;9.0;;;5.3;;
51515;SDS011;37603;55.614;37.326;2022-12-29T08:01:35;12.2;;;6.3;;
51515;SDS011;37603;55.614;37.326;2022-12-29T08:07:33;11.3;;;5.9;;
51515;SDS011;37603;55.614;37.326;2022-12-29T08:13:32;10.3;;;6.6;;
51515;SDS011;37603;55.614;37.326;2022-12-29T08:19:30;11.4;;;6.4;;
51515;SDS011;37603;55.614;37.326;2022-12-29T08:25:29;12.4;;;7.9;;
51515;SDS011;37603;55.614;37.326;2022-12-29T08:31:28;7.6;;;3.5;;
51515;SDS011;37603;55.614;37.326;2022-12-29T08:37:26;6.6;;;2.5;;
51515;SDS011;37603;55.614;37.326;2022-12-29T08:49:23;10.4;;;6.6;;
51515;SDS011;37603;55.614;37.326;2022-12-29T08:55:22;7.8;;;5.4;;
51515;SDS011;37603;55.614;37.326;2022-12-29T09:01:20;8.3;;;5.4;;
51515;SDS011;37603;55.614;37.326;2022-12-29T09:07:19;9.1;;;2.4;;
51515;SDS011;37603;55.614;37.326;2022-12-29T09:13:17;8.9;;;5.6;;
51515;SDS011;37603;55.614;37.326;2022-12-29T09:19:16;8.8;;;5.9;;
51515;SDS011;37603;55.614;37.326;2022-12-29T09:25:15;9.7;;;5.9;;
51515;SDS011;37603;55.614;37.326;2022-12-29T09:31:13;8.2;;;5.9;;
51515;SDS011;37603;55.614;37.326;2022-12-29T09:49:13;9.8;;;5.2;;
51515;SDS011;37603;55.614;37.326;2022-12-29T09:55:09;7.4;;;5.2;;
51515;SDS011;37603;55.614;37.326;2022-12-29T10:01:06;8.4;;;5.3;;
51515;SDS011;37603;55.614;37.326;2022-12-29T10:13:07;8.0;;;5.3;;
51515;SDS011;37603;55.614;37.326;2022-12-29T10:19:06;6.9;;;5.2;;
51515;SDS011;37603;55.614;37.326;2022-12-29T10:25:00;8.1;;;5.8;;
51515;SDS011;37603;55.614;37.326;2022-12-29T10:30:59;8.3;;;5.9;;
51515;SDS011;37603;55.614;37.326;2022-12-29T10:36:58;8.1;;;5.6;;
51515;SDS011;37603;55.614;37.326;2022-12-29T10:42:56;9.3;;;5.8;;
51515;SDS011;37603;55.614;37.326;2022-12-29T10:48:54;8.8;;;5.8;;
51515;SDS011;37603;55.614;37.326;2022-12-29T10:54:54;8.0;;;6.4;;
51515;SDS011;37603;55.614;37.326;2022-12-29T11:00:52;9.8;;;6.9;;
51515;SDS011;37603;55.614;37.326;2022-12-29T11:12:57;8.3;;;5.9;;
51515;SDS011;37603;55.614;37.326;2022-12-29T11:18:47;7.8;;;5.6;;
51515;SDS011;37603;55.614;37.326;2022-12-29T11:24:46;9.6;;;6.3;;
51515;SDS011;37603;55.614;37.326;2022-12-29T11:36:43;11.9;;;6.8;;
51515;SDS011;37603;55.614;37.326;2022-12-29T11:42:43;13.9;;;8.6;;
51515;SDS011;37603;55.614;37.326;2022-12-29T11:48:40;13.5;;;8.9;;
51515;SDS011;37603;55.614;37.326;2022-12-29T11:54:38;15.8;;;9.7;;
51515;SDS011;37603;55.614;37.326;2022-12-29T12:00:37;15.9;;;9.7;;
51515;SDS011;37603;55.614;37.326;2022-12-29T12:06:36;15.3;;;9.4;;
51515;SDS011;37603;55.614;37.326;2022-12-29T12:12:35;17.3;;;9.7;;
51515;SDS011;37603;55.614;37.326;2022-12-29T12:18:34;17.9;;;10.8;;
51515;SDS011;37603;55.614;37.326;2022-12-29T12:24:35;20.2;;;11.2;;
51515;SDS011;37603;55.614;37.326;2022-12-29T12:30:33;17.1;;;11.0;;
51515;SDS011;37603;55.614;37.326;2022-12-29T12:36:32;20.3;;;12.5;;
51515;SDS011;37603;55.614;37.326;2022-12-29T12:42:31;18.9;;;11.4;;
51515;SDS011;37603;55.614;37.326;2022-12-29T12:48:30;22.2;;;12.1;;
51515;SDS011;37603;55.614;37.326;2022-12-29T12:54:29;23.6;;;13.0;;
51515;SDS011;37603;55.614;37.326;2022-12-29T13:00:23;24.8;;;13.1;;
51515;SDS011;37603;55.614;37.326;2022-12-29T13:06:23;26.5;;;14.2;;
51515;SDS011;37603;55.614;37.326;2022-12-29T13:12:23;27.4;;;14.7;;
51515;SDS011;37603;55.614;37.326;2022-12-29T13:18:21;27.5;;;15.0;;
51515;SDS011;37603;55.614;37.326;2022-12-29T13:24:19;27.7;;;14.9;;
51515;SDS011;37603;55.614;37.326;2022-12-29T13:30:16;27.0;;;14.5;;
51515;SDS011;37603;55.614;37.326;2022-12-29T13:36:18;26.0;;;13.2;;
51515;SDS011;37603;55.614;37.326;2022-12-29T13:42:12;24.8;;;13.1;;
51515;SDS011;37603;55.614;37.326;2022-12-29T13:48:13;25.4;;;13.6;;
51515;SDS011;37603;55.614;37.326;2022-12-29T13:54:12;29.1;;;14.3;;
51515;SDS011;37603;55.614;37.326;2022-12-29T14:00:11;34.8;;;16.8;;
51515;SDS011;37603;55.614;37.326;2022-12-29T14:06:12;37.3;;;18.8;;
51515;SDS011;37603;55.614;37.326;2022-12-29T14:18:10;39.1;;;19.1;;
51515;SDS011;37603;55.614;37.326;2022-12-29T14:30:01;40.5;;;20.4;;
51515;SDS011;37603;55.614;37.326;2022-12-29T14:41:59;40.4;;;19.6;;
51515;SDS011;37603;55.614;37.326;2022-12-29T14:47:56;37.6;;;18.8;;
51515;SDS011;37603;55.614;37.326;2022-12-29T14:53:55;36.0;;;19.3;;
51515;SDS011;37603;55.614;37.326;2022-12-29T14:59:54;39.4;;;19.1;;
51515;SDS011;37603;55.614;37.326;2022-12-29T15:05:53;40.5;;;20.0;;
51515;SDS011;37603;55.614;37.326;2022-12-29T15:11:51;39.7;;;19.8;;
51515;SDS011;37603;55.614;37.326;2022-12-29T15:17:49;37.9;;;19.5;;
51515;SDS011;37603;55.614;37.326;2022-12-29T15:23:48;39.6;;;19.2;;
51515;SDS011;37603;55.614;37.326;2022-12-29T15:29:46;38.4;;;19.9;;
51515;SDS011;37603;55.614;37.326;2022-12-29T15:35:48;36.1;;;19.4;;
51515;SDS011;37603;55.614;37.326;2022-12-29T15:41:44;39.5;;;21.2;;
51515;SDS011;37603;55.614;37.326;2022-12-29T15:47:43;36.5;;;19.8;;
51515;SDS011;37603;55.614;37.326;2022-12-29T15:53:40;38.1;;;19.5;;
51515;SDS011;37603;55.614;37.326;2022-12-29T15:59:44;40.1;;;20.9;;
51515;SDS011;37603;55.614;37.326;2022-12-29T16:05:38;34.7;;;19.4;;
51515;SDS011;37603;55.614;37.326;2022-12-29T16:11:37;35.7;;;19.7;;
51515;SDS011;37603;55.614;37.326;2022-12-29T16:17:36;34.4;;;19.7;;
51515;SDS011;37603;55.614;37.326;2022-12-29T16:23:33;34.6;;;19.9;;
51515;SDS011;37603;55.614;37.326;2022-12-29T16:29:32;33.9;;;19.6;;
51515;SDS011;37603;55.614;37.326;2022-12-29T16:35:37;35.1;;;19.2;;
51515;SDS011;37603;55.614;37.326;2022-12-29T16:41:29;32.8;;;19.2;;
51515;SDS011;37603;55.614;37.326;2022-12-29T16:47:28;30.3;;;19.0;;
51515;SDS011;37603;55.614;37.326;2022-12-29T16:53:27;28.5;;;17.8;;
51515;SDS011;37603;55.614;37.326;2022-12-29T17:05:23;30.5;;;18.2;;
51515;SDS011;37603;55.614;37.326;2022-12-29T17:11:23;31.7;;;18.5;;
51515;SDS011;37603;55.614;37.326;2022-12-29T17:17:30;34.8;;;21.9;;
51515;SDS011;37603;55.614;37.326;2022-12-29T17:23:19;37.3;;;22.0;;
51515;SDS011;37603;55.614;37.326;2022-12-29T17:29:19;34.4;;;22.2;;
51515;SDS011;37603;55.614;37.326;2022-12-29T17:35:17;34.2;;;21.4;;
51515;SDS011;37603;55.614;37.326;2022-12-29T17:41:15;35.2;;;20.9;;
51515;SDS011;37603;55.614;37.326;2022-12-29T17:47:13;35.0;;;21.8;;
51515;SDS011;37603;55.614;37.326;2022-12-29T17:53:13;37.0;;;23.3;;
51515;SDS011;37603;55.614;37.326;2022-12-29T18:05:12;36.4;;;21.2;;
51515;SDS011;37603;55.614;37.326;2022-12-29T18:11:14;33.4;;;21.6;;
51515;SDS011;37603;55.614;37.326;2022-12-29T18:17:08;32.5;;;21.4;;
51515;SDS011;37603;55.614;37.326;2022-12-29T18:23:05;40.6;;;23.1;;
51515;SDS011;37603;55.614;37.326;2022-12-29T18:26:56;40.6;;;23.1;;
51515;SDS011;37603;55.614;37.326;2022-12-29T18:29:04;39.2;;;23.5;;
51515;SDS011;37603;55.614;37.326;2022-12-29T18:35:02;37.8;;;23.1;;
51515;SDS011;37603;55.614;37.326;2022-12-29T18:41:01;37.2;;;22.3;;
51515;SDS011;37603;55.614;37.326;2022-12-29T18:46:59;36.3;;;22.8;;
51515;SDS011;37603;55.614;37.326;2022-12-29T18:52:58;38.8;;;23.8;;
51515;SDS011;37603;55.614;37.326;2022-12-29T18:58:57;41.3;;;23.8;;
51515;SDS011;37603;55.614;37.326;2022-12-29T19:04:55;41.5;;;24.5;;
51515;SDS011;37603;55.614;37.326;2022-12-29T19:10:54;41.6;;;23.6;;
51515;SDS011;37603;55.614;37.326;2022-12-29T19:16:52;37.5;;;23.5;;
51515;SDS011;37603;55.614;37.326;2022-12-29T19:22:51;42.8;;;24.4;;
51515;SDS011;37603;55.614;37.326;2022-12-29T19:28:49;39.7;;;23.1;;
51515;SDS011;37603;55.614;37.326;2022-12-29T19:34:48;43.3;;;24.2;;
51515;SDS011;37603;55.614;37.326;2022-12-29T19:40:47;42.3;;;23.7;;
51515;SDS011;37603;55.614;37.326;2022-12-29T19:46:45;36.0;;;22.5;;
51515;SDS011;37603;55.614;37.326;2022-12-29T19:52:44;38.0;;;23.1;;
51515;SDS011;37603;55.614;37.326;2022-12-29T19:58:42;38.4;;;22.4;;
51515;SDS011;37603;55.614;37.326;2022-12-29T20:04:41;36.2;;;22.7;;
51515;SDS011;37603;55.614;37.326;2022-12-29T20:10:40;39.7;;;23.6;;
51515;SDS011;37603;55.614;37.326;2022-12-29T20:16:38;37.8;;;22.9;;
51515;SDS011;37603;55.614;37.326;2022-12-29T20:22:37;36.9;;;23.0;;
51515;SDS011;37603;55.614;37.326;2022-12-29T20:28:35;35.1;;;22.3;;
51515;SDS011;37603;55.614;37.326;2022-12-29T20:34:34;36.1;;;22.8;;
51515;SDS011;37603;55.614;37.326;2022-12-29T20:40:32;35.7;;;22.9;;
51515;SDS011;37603;55.614;37.326;2022-12-29T20:46:31;34.1;;;22.8;;
51515;SDS011;37603;55.614;37.326;2022-12-29T20:52:30;35.7;;;22.8;;
51515;SDS011;37603;55.614;37.326;2022-12-29T20:58:28;36.1;;;22.0;;
51515;SDS011;37603;55.614;37.326;2022-12-29T21:04:27;34.2;;;21.6;;
51515;SDS011;37603;55.614;37.326;2022-12-29T21:10:26;35.5;;;21.4;;
51515;SDS011;37603;55.614;37.326;2022-12-29T21:16:24;30.8;;;21.7;;
51515;SDS011;37603;55.614;37.326;2022-12-29T21:22:23;34.9;;;21.7;;
51515;SDS011;37603;55.614;37.326;2022-12-29T21:28:22;37.9;;;23.6;;
51515;SDS011;37603;55.614;37.326;2022-12-29T21:40:18;43.3;;;26.5;;
51515;SDS011;37603;55.614;37.326;2022-12-29T21:46:17;43.8;;;27.2;;
51515;SDS011;37603;55.614;37.326;2022-12-29T21:52:16;44.7;;;27.8;;
51515;SDS011;37603;55.614;37.326;2022-12-29T21:58:14;43.8;;;27.4;;
51515;SDS011;37603;55.614;37.326;2022-12-29T22:04:13;41.8;;;26.1;;
51515;SDS011;37603;55.614;37.326;2022-12-29T22:10:11;41.3;;;25.8;;
51515;SDS011;37603;55.614;37.326;2022-12-29T22:16:10;42.5;;;24.7;;
51515;SDS011;37603;55.614;37.326;2022-12-29T22:22:09;38.9;;;25.0;;
51515;SDS011;37603;55.614;37.326;2022-12-29T22:28:07;37.1;;;23.8;;
51515;SDS011;37603;55.614;37.326;2022-12-29T22:34:06;37.2;;;24.8;;
51515;SDS011;37603;55.614;37.326;2022-12-29T22:40:05;40.9;;;25.9;;
51515;SDS011;37603;55.614;37.326;2022-12-29T22:46:04;43.0;;;27.6;;
51515;SDS011;37603;55.614;37.326;2022-12-29T22:52:02;38.1;;;24.7;;
51515;SDS011;37603;55.614;37.326;2022-12-29T23:03:59;37.0;;;24.4;;
51515;SDS011;37603;55.614;37.326;2022-12-29T23:09:58;38.2;;;24.9;;
51515;SDS011;37603;55.614;37.326;2022-12-29T23:15:56;36.3;;;25.0;;
51515;SDS011;37603;55.614;37.326;2022-12-29T23:21:55;36.5;;;24.6;;
51515;SDS011;37603;55.614;37.326;2022-12-29T23:27:53;42.2;;;27.0;;
51515;SDS011;37603;55.614;37.326;2022-12-29T23:33:52;46.7;;;30.0;;
51515;SDS011;37603;55.614;37.326;2022-12-29T23:39:51;30.7;;;12.5;;
51515;SDS011;37603;55.614;37.326;2022-12-29T23:45:49;43.1;;;27.5;;
51515;SDS011;37603;55.614;37.326;2022-12-29T23:51:48;46.8;;;27.5;;
51515;SDS011;37603;55.614;37.326;2022-12-29T23:57:47;41.6;;;27.0;;
